createdAt,value
2023-04-15T00:00:09.855Z,86.17
2023-04-15T00:02:48.768Z,86.54
2023-04-15T00:05:19.853Z,86.26
2023-04-15T00:07:48.938Z,86.75
2023-04-15T00:10:17.077Z,86.37
2023-04-15T00:12:45.807Z,86.60
2023-04-15T00:15:18.172Z,85.78
2023-04-15T00:17:50.584Z,85.79
2023-04-15T00:20:20.663Z,85.99
2023-04-15T00:23:00.840Z,85.59
2023-04-15T00:25:29.441Z,85.29
2023-04-15T00:28:01.824Z,84.52
2023-04-15T00:30:34.671Z,84.95
2023-04-15T00:33:07.014Z,85.18
2023-04-15T00:35:42.915Z,85.19
2023-04-15T00:38:23.771Z,84.56
2023-04-15T00:41:00.781Z,84.03
2023-04-15T00:43:30.239Z,84.42
2023-04-15T00:46:01.560Z,84.40
2023-04-15T00:48:35.490Z,84.84
2023-04-15T00:51:09.904Z,84.61
2023-04-15T00:53:41.657Z,84.37
2023-04-15T00:56:17.773Z,84.68
2023-04-15T00:58:48.935Z,84.74
2023-04-15T01:01:24.851Z,85.17
2023-04-15T01:06:58.450Z,85.21
2023-04-15T01:09:33.974Z,85.27
2023-04-15T01:12:08.687Z,85.03
2023-04-15T01:14:54.326Z,84.76
2023-04-15T01:17:24.866Z,84.87
2023-04-15T01:20:03.292Z,84.94
2023-04-15T01:22:40.767Z,84.98
2023-04-15T01:25:11.376Z,85.47
2023-04-15T01:27:40.599Z,85.83
2023-04-15T01:30:09.053Z,85.69
2023-04-15T01:32:37.809Z,84.74
2023-04-15T01:35:08.453Z,85.07
2023-04-15T01:38:05.380Z,84.93
2023-04-15T01:40:38.042Z,84.56
2023-04-15T01:43:06.999Z,84.41
2023-04-15T01:45:35.486Z,84.87
2023-04-15T01:48:08.443Z,84.78
2023-04-15T01:50:44.160Z,85.13
2023-04-15T01:53:13.732Z,84.96
2023-04-15T01:55:42.816Z,85.49
2023-04-15T01:58:12.092Z,85.21
2023-04-15T02:00:43.934Z,84.88
2023-04-15T02:03:12.016Z,84.77
2023-04-15T02:05:40.882Z,85.21
2023-04-15T02:08:13.703Z,85.29
2023-04-15T02:10:45.578Z,84.81
2023-04-15T02:13:13.243Z,84.34
2023-04-15T02:15:49.526Z,84.22
2023-04-15T02:18:24.487Z,83.96
2023-04-15T02:20:55.037Z,84.87
2023-04-15T02:23:25.687Z,84.72
2023-04-15T02:26:00.134Z,84.38
2023-04-15T02:28:29.032Z,85.00
2023-04-15T02:31:00.714Z,85.24
2023-04-15T02:33:34.148Z,85.49
2023-04-15T02:36:02.768Z,85.42
2023-04-15T02:38:32.384Z,84.90
2023-04-15T02:41:00.672Z,85.34
2023-04-15T02:43:29.566Z,85.62
2023-04-15T02:45:58.089Z,85.53
2023-04-15T02:48:29.104Z,85.07
2023-04-15T02:51:14.514Z,85.59
2023-04-15T02:53:42.309Z,85.33
2023-04-15T02:56:19.904Z,85.52
2023-04-15T02:58:50.920Z,85.97
2023-04-15T03:01:19.336Z,85.67
2023-04-15T03:03:48.554Z,86.19
2023-04-15T03:06:16.831Z,86.34
2023-04-15T03:08:46.366Z,86.24
2023-04-15T03:11:16.709Z,86.63
2023-04-15T03:13:52.876Z,86.74
2023-04-15T03:16:33.255Z,86.01
2023-04-15T03:19:15.293Z,85.99
2023-04-15T03:21:44.997Z,86.74
2023-04-15T03:24:33.043Z,86.55
2023-04-15T03:27:02.248Z,86.45
2023-04-15T03:29:30.169Z,86.48
2023-04-15T03:32:02.344Z,85.36
2023-04-15T03:34:35.525Z,85.50
2023-04-15T03:37:03.970Z,85.97
2023-04-15T03:39:32.767Z,85.50
2023-04-15T03:42:16.581Z,85.18
2023-04-15T03:44:47.318Z,85.66
2023-04-15T03:47:15.105Z,86.10
2023-04-15T03:49:46.068Z,87.14
2023-04-15T03:52:14.608Z,86.46
2023-04-15T03:54:42.552Z,86.03
2023-04-15T03:57:26.845Z,86.33
2023-04-15T03:59:54.980Z,85.78
2023-04-15T04:02:24.718Z,85.88
2023-04-15T04:04:53.575Z,86.46
2023-04-15T04:07:24.658Z,86.08
2023-04-15T04:09:53.019Z,85.88
2023-04-15T04:12:23.526Z,86.02
2023-04-15T04:14:53.089Z,86.00
2023-04-15T04:17:22.121Z,85.33
2023-04-15T04:19:51.530Z,85.71
2023-04-15T04:22:34.778Z,86.09
2023-04-15T04:27:50.041Z,86.11
2023-04-15T04:30:25.706Z,86.47
2023-04-15T04:32:58.611Z,85.85
2023-04-15T04:35:30.591Z,85.94
2023-04-15T04:38:02.216Z,85.61
2023-04-15T04:40:32.623Z,85.87
2023-04-15T04:45:52.365Z,85.95
2023-04-15T04:48:22.802Z,86.43
2023-04-15T04:50:54.312Z,85.85
2023-04-15T04:53:22.669Z,85.11
2023-04-15T04:55:54.127Z,84.49
2023-04-15T04:58:23.154Z,85.19
2023-04-15T05:00:52.265Z,84.85
2023-04-15T05:03:26.621Z,84.66
2023-04-15T05:06:23.172Z,85.10
2023-04-15T05:08:52.321Z,84.70
2023-04-15T05:11:23.125Z,84.55
2023-04-15T05:14:08.319Z,83.87
2023-04-15T05:16:39.529Z,83.99
2023-04-15T05:19:09.070Z,83.55
2023-04-15T05:21:39.497Z,83.42
2023-04-15T05:24:11.385Z,83.64
2023-04-15T05:27:05.132Z,83.04
2023-04-15T05:29:39.370Z,82.39
2023-04-15T05:32:09.608Z,82.47
2023-04-15T05:37:38.503Z,81.76
2023-04-15T05:40:07.669Z,82.22
2023-04-15T05:42:43.722Z,80.98
2023-04-15T05:45:13.987Z,80.82
2023-04-15T05:47:42.705Z,81.05
2023-04-15T05:50:10.811Z,81.09
2023-04-15T05:52:40.585Z,80.63
2023-04-15T05:55:10.437Z,81.00
2023-04-15T05:57:44.119Z,80.80
2023-04-15T06:00:17.653Z,80.34
2023-04-15T06:02:56.495Z,80.18
2023-04-15T06:05:25.470Z,80.08
2023-04-15T06:07:55.231Z,80.22
2023-04-15T06:13:13.794Z,80.43
2023-04-15T06:15:51.554Z,79.85
2023-04-15T06:21:16.506Z,80.84
2023-04-15T06:24:03.700Z,80.23
2023-04-15T06:26:41.847Z,79.32
2023-04-15T06:29:25.963Z,79.78
2023-04-15T06:32:01.462Z,80.42
2023-04-15T06:34:39.914Z,78.98
2023-04-15T06:37:12.128Z,79.07
2023-04-15T06:40:01.091Z,78.49
2023-04-15T06:42:31.302Z,76.62
2023-04-15T06:45:14.118Z,76.73
2023-04-15T06:48:03.156Z,76.08
2023-04-15T06:50:56.384Z,75.32
2023-04-15T06:53:33.021Z,76.35
2023-04-15T06:56:01.791Z,77.95
2023-04-15T06:58:34.209Z,78.18
2023-04-15T07:01:13.753Z,78.05
2023-04-15T07:03:47.973Z,76.19
2023-04-15T07:06:26.918Z,76.49
2023-04-15T07:11:54.823Z,75.54
2023-04-15T07:14:36.473Z,77.35
2023-04-15T07:17:14.022Z,75.61
2023-04-15T07:19:55.933Z,77.28
2023-04-15T07:22:54.200Z,75.72
2023-04-15T07:25:26.775Z,75.20
2023-04-15T07:27:57.423Z,75.89
2023-04-15T07:30:27.228Z,76.94
2023-04-15T07:33:07.323Z,76.58
2023-04-15T07:35:38.321Z,76.09
2023-04-15T07:38:07.981Z,76.12
2023-04-15T07:40:38.233Z,76.39
2023-04-15T07:43:09.174Z,76.28
2023-04-15T07:45:37.136Z,75.89
2023-04-15T07:48:06.551Z,75.79
2023-04-15T07:50:35.293Z,75.79
2023-04-15T07:53:04.345Z,75.71
2023-04-15T07:55:31.797Z,75.65
2023-04-15T07:58:01.166Z,74.98
2023-04-15T08:00:29.504Z,74.55
2023-04-15T08:02:57.817Z,76.07
2023-04-15T08:05:25.940Z,77.10
2023-04-15T08:07:57.587Z,76.37
2023-04-15T08:10:25.105Z,75.52
2023-04-15T08:12:55.203Z,76.38
2023-04-15T08:15:23.710Z,75.89
2023-04-15T08:17:56.625Z,75.69
2023-04-15T08:20:27.393Z,75.00
2023-04-15T08:22:58.422Z,75.21
2023-04-15T08:25:32.293Z,75.69
2023-04-15T08:28:03.656Z,74.50
2023-04-15T08:30:34.703Z,74.83
2023-04-15T08:33:05.902Z,75.03
2023-04-15T08:35:34.282Z,75.34
2023-04-15T08:38:02.896Z,75.61
2023-04-15T08:40:32.292Z,75.66
2023-04-15T08:43:06.773Z,75.25
2023-04-15T08:45:34.360Z,74.86
2023-04-15T08:48:01.809Z,75.25
2023-04-15T08:50:29.510Z,74.49
2023-04-15T08:53:02.619Z,74.30
2023-04-15T08:55:31.038Z,74.63
2023-04-15T08:57:59.285Z,74.93
2023-04-15T09:00:27.851Z,73.72
2023-04-15T09:02:58.662Z,72.78
2023-04-15T09:05:26.584Z,72.58
2023-04-15T09:07:55.265Z,72.98
2023-04-15T09:10:23.425Z,72.68
2023-04-15T09:12:51.432Z,73.75
2023-04-15T09:15:19.347Z,72.26
2023-04-15T09:17:49.033Z,72.65
2023-04-15T09:20:16.912Z,72.71
2023-04-15T09:22:45.745Z,73.35
2023-04-15T09:25:16.547Z,71.68
2023-04-15T09:28:01.290Z,71.48
2023-04-15T09:30:29.125Z,70.96
2023-04-15T09:33:20.531Z,71.04
2023-04-15T09:35:58.200Z,70.61
2023-04-15T09:38:29.288Z,71.95
2023-04-15T09:41:00.417Z,71.43
2023-04-15T09:43:38.326Z,71.59
2023-04-15T09:46:09.708Z,72.02
2023-04-15T09:48:38.374Z,70.98
2023-04-15T09:51:08.666Z,71.01
2023-04-15T09:53:37.034Z,71.79
2023-04-15T09:56:07.574Z,72.11
2023-04-15T09:58:35.920Z,72.47
2023-04-15T10:01:04.708Z,72.52
2023-04-15T10:03:34.685Z,72.01
2023-04-15T10:06:03.700Z,70.88
2023-04-15T10:08:33.070Z,71.21
2023-04-15T10:11:03.763Z,71.01
2023-04-15T10:13:36.319Z,70.90
2023-04-15T10:16:15.980Z,72.61
2023-04-15T10:19:01.006Z,71.46
2023-04-15T10:21:32.578Z,71.28
2023-04-15T10:24:02.548Z,71.54
2023-04-15T10:26:34.314Z,71.32
2023-04-15T10:29:09.367Z,71.49
2023-04-15T10:31:46.186Z,70.75
2023-04-15T10:34:19.430Z,69.95
2023-04-15T10:36:52.600Z,69.78
2023-04-15T10:39:42.145Z,69.56
2023-04-15T10:42:12.734Z,70.01
2023-04-15T10:44:49.207Z,70.31
2023-04-15T10:47:23.052Z,70.34
2023-04-15T10:50:00.608Z,69.15
2023-04-15T10:52:33.320Z,70.14
2023-04-15T10:55:13.098Z,68.84
2023-04-15T10:57:43.271Z,69.85
2023-04-15T11:00:14.622Z,68.98
2023-04-15T11:02:50.382Z,68.59
2023-04-15T11:05:42.050Z,68.93
2023-04-15T11:11:30.614Z,68.99
2023-04-15T11:14:04.692Z,69.80
2023-04-15T11:16:42.167Z,68.63
2023-04-15T11:19:15.811Z,69.31
2023-04-15T11:21:54.025Z,70.90
2023-04-15T11:24:27.527Z,69.80
2023-04-15T11:27:00.047Z,70.14
2023-04-15T11:29:54.314Z,69.71
2023-04-15T11:32:22.918Z,69.98
2023-04-15T11:34:54.087Z,70.00
2023-04-15T11:37:28.807Z,69.78
2023-04-15T11:39:56.557Z,69.77
2023-04-15T11:42:31.468Z,69.69
2023-04-15T11:45:12.602Z,70.07
2023-04-15T11:47:40.965Z,69.87
2023-04-15T11:50:27.690Z,70.01
2023-04-15T11:53:11.981Z,69.37
2023-04-15T11:55:44.905Z,70.36
2023-04-15T11:58:24.862Z,70.34
2023-04-15T12:01:15.881Z,69.88
2023-04-15T12:03:50.807Z,69.13
2023-04-15T12:06:20.232Z,69.76
2023-04-15T12:08:48.906Z,69.78
2023-04-15T12:11:18.726Z,69.76
2023-04-15T12:14:07.001Z,69.15
2023-04-15T12:16:48.734Z,70.14
2023-04-15T12:19:54.395Z,70.34
2023-04-15T12:22:26.619Z,69.71
2023-04-15T12:25:04.763Z,69.95
2023-04-15T12:27:33.252Z,70.33
2023-04-15T12:30:08.065Z,70.70
2023-04-15T12:32:37.449Z,70.40
2023-04-15T12:35:06.803Z,70.86
2023-04-15T12:37:35.626Z,70.88
2023-04-15T12:40:14.280Z,71.12
2023-04-15T12:42:42.967Z,71.68
2023-04-15T12:45:10.512Z,71.11
2023-04-15T12:47:44.541Z,73.06
2023-04-15T12:50:12.607Z,70.29
2023-04-15T12:52:40.805Z,70.41
2023-04-15T12:55:09.210Z,70.10
2023-04-15T12:57:37.205Z,70.27
2023-04-15T13:00:10.652Z,69.88
2023-04-15T13:02:39.020Z,70.34
2023-04-15T13:05:07.630Z,70.45
2023-04-15T13:07:37.350Z,70.77
2023-04-15T13:10:05.625Z,70.64
2023-04-15T13:12:37.789Z,71.50
2023-04-15T13:15:05.951Z,71.25
2023-04-15T13:17:34.804Z,72.28
2023-04-15T13:20:02.745Z,71.55
2023-04-15T13:22:30.690Z,72.21
2023-04-15T13:24:59.131Z,72.15
2023-04-15T13:27:27.859Z,72.12
2023-04-15T13:29:58.418Z,71.71
2023-04-15T13:32:27.257Z,71.19
2023-04-15T13:34:56.546Z,70.76
2023-04-15T13:37:32.878Z,70.94
2023-04-15T13:40:10.356Z,70.95
2023-04-15T13:42:41.118Z,72.04
2023-04-15T13:48:03.582Z,71.59
2023-04-15T13:50:41.636Z,71.29
2023-04-15T13:53:11.452Z,71.27
2023-04-15T13:55:43.228Z,72.28
2023-04-15T13:58:11.640Z,72.16
2023-04-15T14:00:42.342Z,72.40
2023-04-15T14:03:11.150Z,72.68
2023-04-15T14:05:39.717Z,71.48
2023-04-15T14:08:08.623Z,71.49
2023-04-15T14:10:42.633Z,70.99
2023-04-15T14:13:10.978Z,71.46
2023-04-15T14:15:38.616Z,71.53
2023-04-15T14:18:06.190Z,71.74
2023-04-15T14:20:35.021Z,72.23
2023-04-15T14:23:03.444Z,72.16
2023-04-15T14:26:02.570Z,72.55
2023-04-15T14:28:33.267Z,73.14
2023-04-15T14:31:01.219Z,72.95
2023-04-15T14:33:29.600Z,73.06
2023-04-15T14:35:59.752Z,72.84
2023-04-15T14:38:27.933Z,73.41
2023-04-15T14:40:55.991Z,74.26
2023-04-15T14:43:23.900Z,73.96
2023-04-15T14:45:53.406Z,73.42
2023-04-15T14:48:21.436Z,74.02
2023-04-15T14:50:49.468Z,74.55
2023-04-15T14:53:17.658Z,74.23
2023-04-15T14:55:48.098Z,74.32
2023-04-15T14:58:16.755Z,74.53
2023-04-15T15:00:44.760Z,74.71
2023-04-15T15:03:13.768Z,73.64
2023-04-15T15:06:00.428Z,73.92
2023-04-15T15:08:28.746Z,74.05
2023-04-15T15:10:56.369Z,73.33
2023-04-15T15:13:25.964Z,72.95
2023-04-15T15:15:55.455Z,73.15
2023-04-15T15:18:26.094Z,73.19
2023-04-15T15:20:53.827Z,73.43
2023-04-15T15:23:23.614Z,73.16
2023-04-15T15:28:35.406Z,74.02
2023-04-15T15:31:05.085Z,74.11
2023-04-15T15:33:34.610Z,73.94
2023-04-15T15:36:02.503Z,73.62
2023-04-15T15:38:33.018Z,73.87
2023-04-15T15:41:02.052Z,74.59
2023-04-15T15:43:31.321Z,74.07
2023-04-15T15:46:01.143Z,74.85
2023-04-15T15:48:31.648Z,74.74
2023-04-15T15:51:00.608Z,75.21
2023-04-15T15:53:28.608Z,74.79
2023-04-15T15:55:56.117Z,75.34
2023-04-15T15:58:26.276Z,75.39
2023-04-15T16:00:54.136Z,75.28
2023-04-15T16:03:22.989Z,74.89
2023-04-15T16:05:52.935Z,75.36
2023-04-15T16:08:21.724Z,75.52
2023-04-15T16:10:52.047Z,75.79
2023-04-15T16:13:20.118Z,75.12
2023-04-15T16:15:52.459Z,75.65
2023-04-15T16:18:21.441Z,75.43
2023-04-15T16:20:49.486Z,75.26
2023-04-15T16:23:18.167Z,75.44
2023-04-15T16:25:47.811Z,75.82
2023-04-15T16:28:25.785Z,76.22
2023-04-15T16:30:55.174Z,76.87
2023-04-15T16:33:24.225Z,76.50
2023-04-15T16:35:53.416Z,76.58
2023-04-15T16:38:22.733Z,76.57
2023-04-15T16:40:52.498Z,76.38
2023-04-15T16:43:20.402Z,76.05
2023-04-15T16:45:51.398Z,76.34
2023-04-15T17:01:30.254Z,75.39
2023-04-15T17:03:57.963Z,75.71
2023-04-15T17:06:26.630Z,76.57
2023-04-15T17:08:54.185Z,77.24
2023-04-15T17:11:22.253Z,76.99
2023-04-15T17:13:49.848Z,77.05
2023-04-15T17:16:17.681Z,76.34
2023-04-15T17:18:50.621Z,76.75
2023-04-15T17:21:18.627Z,76.76
2023-04-15T17:23:46.338Z,77.13
2023-04-15T17:26:14.010Z,77.00
2023-04-15T17:28:41.664Z,76.98
2023-04-15T17:31:09.516Z,76.91
2023-04-15T17:34:02.208Z,76.44
2023-04-15T17:36:24.644Z,76.83
2023-04-15T17:38:52.314Z,76.72
2023-04-15T17:41:19.877Z,77.50
2023-04-15T17:43:47.995Z,77.03
2023-04-15T17:46:15.981Z,77.29
2023-04-15T17:48:43.853Z,76.71
2023-04-15T17:51:12.971Z,77.22
2023-04-15T17:53:41.560Z,76.81
2023-04-15T17:56:10.548Z,77.77
2023-04-15T17:58:39.411Z,77.53
2023-04-15T18:01:07.172Z,77.37
2023-04-15T18:03:35.961Z,76.97
2023-04-15T18:06:04.664Z,76.99
2023-04-15T18:08:33.278Z,77.42
2023-04-15T18:11:00.964Z,77.22
2023-04-15T18:13:28.734Z,77.14
2023-04-15T18:15:56.500Z,77.10
2023-04-15T18:18:25.526Z,77.35
2023-04-15T18:20:53.115Z,77.07
2023-04-15T18:23:21.115Z,77.33
2023-04-15T18:25:49.352Z,77.50
2023-04-15T18:28:17.850Z,77.03
2023-04-15T18:30:45.818Z,75.88
2023-04-15T18:33:14.032Z,75.14
2023-04-15T18:35:43.142Z,74.77
2023-04-15T18:38:11.141Z,74.72
2023-04-15T18:40:38.854Z,74.57
2023-04-15T18:43:06.724Z,74.98
2023-04-15T18:45:34.909Z,75.36
2023-04-15T18:48:03.016Z,74.56
2023-04-15T18:50:31.625Z,75.11
2023-04-15T18:52:59.678Z,75.18
2023-04-15T18:55:27.723Z,74.60
2023-04-15T18:57:56.768Z,74.46
2023-04-15T19:00:36.521Z,75.51
2023-04-15T19:03:04.384Z,75.13
2023-04-15T19:05:35.923Z,75.42
2023-04-15T19:08:03.550Z,75.29
2023-04-15T19:10:31.261Z,76.50
2023-04-15T19:12:58.797Z,76.07
2023-04-15T19:15:28.107Z,76.47
2023-04-15T19:17:55.922Z,75.68
2023-04-15T19:20:23.598Z,76.05
2023-04-15T19:22:51.216Z,76.24
2023-04-15T19:25:18.687Z,76.48
2023-04-15T19:27:46.612Z,76.64
2023-04-15T19:30:14.098Z,76.68
2023-04-15T19:32:43.850Z,76.22
2023-04-15T19:35:11.736Z,76.26
2023-04-15T19:37:40.428Z,76.80
2023-04-15T19:40:09.616Z,77.34
2023-04-15T19:42:37.789Z,76.88
2023-04-15T19:45:05.826Z,76.78
2023-04-15T19:47:33.859Z,76.76
2023-04-15T19:50:01.770Z,77.05
2023-04-15T19:52:29.663Z,77.26
2023-04-15T19:54:58.412Z,77.33
2023-04-15T19:57:26.475Z,77.43
2023-04-15T19:59:54.133Z,77.18
2023-04-15T20:02:22.546Z,77.29
2023-04-15T20:04:50.354Z,77.04
2023-04-15T20:07:18.058Z,77.43
2023-04-15T20:09:45.960Z,76.90
2023-04-15T20:12:50.151Z,77.07
2023-04-15T20:15:01.589Z,77.57
2023-04-15T20:17:35.067Z,77.19
2023-04-15T20:20:04.710Z,77.19
2023-04-15T20:22:32.656Z,77.32
2023-04-15T20:25:01.228Z,77.66
2023-04-15T20:27:29.033Z,77.24
2023-04-15T20:29:56.587Z,77.16
2023-04-15T20:32:24.408Z,77.74
2023-04-15T20:34:52.491Z,78.39
2023-04-15T20:37:20.030Z,78.40
2023-04-15T20:39:47.842Z,78.54
2023-04-15T20:42:18.697Z,78.23
2023-04-15T20:44:46.682Z,78.13
2023-04-15T20:47:14.283Z,78.06
2023-04-15T20:49:42.063Z,78.65
2023-04-15T20:52:10.214Z,78.29
2023-04-15T20:54:37.967Z,79.08
2023-04-15T20:57:05.771Z,78.94
2023-04-15T20:59:34.903Z,78.98
2023-04-15T21:02:02.582Z,78.86
2023-04-15T21:04:30.743Z,79.08
2023-04-15T21:06:58.856Z,78.77
2023-04-15T21:09:26.612Z,78.50
2023-04-15T21:12:01.238Z,78.29
2023-04-15T21:14:30.024Z,78.48
2023-04-15T21:16:58.353Z,79.05
2023-04-15T21:19:26.176Z,78.69
2023-04-15T21:21:54.125Z,78.13
2023-04-15T21:24:21.742Z,78.26
2023-04-15T21:26:49.691Z,78.70
2023-04-15T21:29:17.406Z,78.39
2023-04-15T21:31:45.569Z,78.42
2023-04-15T21:34:14.488Z,78.13
2023-04-15T21:36:45.868Z,78.74
2023-04-15T21:39:13.408Z,77.75
2023-04-15T21:41:41.159Z,78.00
2023-04-15T21:44:09.173Z,77.55
2023-04-15T21:46:37.198Z,77.38
2023-04-15T21:49:07.731Z,77.56
2023-04-15T21:51:35.940Z,76.85
2023-04-15T21:54:03.769Z,77.69
2023-04-15T21:56:32.070Z,77.44
2023-04-15T21:58:59.670Z,77.09
2023-04-15T22:01:27.486Z,76.27
2023-04-15T22:03:55.258Z,76.29
2023-04-15T22:06:23.316Z,76.96
2023-04-15T22:08:56.704Z,76.42
2023-04-15T22:11:40.002Z,76.56
2023-04-15T22:14:07.573Z,76.44
2023-04-15T22:16:35.310Z,77.41
2023-04-15T22:19:03.262Z,77.95
2023-04-15T22:21:32.054Z,77.54
2023-04-15T22:24:38.888Z,77.62
2023-04-15T22:26:47.401Z,77.99
2023-04-15T22:29:14.928Z,77.54
2023-04-15T22:31:42.983Z,78.06
2023-04-15T22:34:10.822Z,77.68
2023-04-15T22:36:38.430Z,77.21
2023-04-15T22:39:06.601Z,78.19
2023-04-15T22:41:35.352Z,76.90
2023-04-15T22:44:02.917Z,76.53
2023-04-15T22:46:31.516Z,77.35
2023-04-15T22:48:59.212Z,77.08
2023-04-15T22:51:29.487Z,76.35
2023-04-15T22:53:58.575Z,77.25
2023-04-15T22:56:26.222Z,76.36
2023-04-15T22:58:53.704Z,76.60
2023-04-15T23:01:24.252Z,77.23
2023-04-15T23:03:56.490Z,77.10
2023-04-15T23:06:29.918Z,76.88
2023-04-15T23:08:57.723Z,76.66
2023-04-15T23:11:25.581Z,76.22
